createdAt,value
2017-12-17T00:00:46.024Z,2.48
2017-12-17T00:01:56.293Z,2.52
2017-12-17T00:03:06.665Z,2.51
2017-12-17T00:04:16.993Z,2.48
2017-12-17T00:05:27.303Z,2.51
2017-12-17T00:06:37.588Z,2.49
2017-12-17T00:07:47.827Z,2.52
2017-12-17T00:08:57.851Z,2.56
2017-12-17T00:10:07.766Z,2.53
2017-12-17T00:11:17.528Z,2.46
2017-12-17T00:12:27.832Z,2.48
2017-12-17T00:13:37.874Z,2.52
2017-12-17T00:14:47.894Z,2.51
2017-12-17T00:15:58.263Z,2.53
2017-12-17T00:17:08.274Z,2.53
2017-12-17T00:18:18.283Z,2.45
2017-12-17T00:19:28.201Z,2.46
2017-12-17T00:20:38.474Z,2.51
2017-12-17T00:21:48.396Z,2.42
2017-12-17T00:22:58.423Z,2.49
2017-12-17T00:24:08.765Z,2.48
2017-12-17T00:25:19.118Z,2.45
2017-12-17T00:26:29.120Z,2.45
2017-12-17T00:27:39.378Z,2.45
2017-12-17T00:28:49.688Z,2.46
2017-12-17T00:29:59.944Z,2.45
2017-12-17T00:31:10.202Z,2.44
2017-12-17T00:32:20.473Z,2.31
2017-12-17T00:33:30.557Z,2.33
2017-12-17T00:34:40.842Z,2.42
2017-12-17T00:35:51.141Z,2.37
2017-12-17T00:37:01.378Z,2.37
2017-12-17T00:38:11.649Z,2.33
2017-12-17T00:39:21.940Z,2.31
2017-12-17T00:40:31.908Z,2.31
2017-12-17T00:41:42.163Z,2.36
2017-12-17T00:42:52.443Z,2.24
2017-12-17T00:44:02.702Z,2.31
2017-12-17T00:45:12.705Z,2.36
2017-12-17T00:46:23.064Z,2.31
2017-12-17T00:47:33.380Z,2.36
2017-12-17T00:48:43.963Z,2.3
2017-12-17T00:49:54.209Z,2.3
2017-12-17T00:51:04.512Z,2.19
2017-12-17T00:52:14.494Z,2.24
2017-12-17T00:53:24.874Z,2.34
2017-12-17T00:54:35.133Z,2.26
2017-12-17T00:55:45.372Z,2.34
2017-12-17T00:56:55.630Z,2.42
2017-12-17T00:58:06.576Z,2.34
2017-12-17T00:59:16.913Z,2.31
2017-12-17T01:00:27.195Z,2.26
2017-12-17T01:01:37.229Z,2.36
2017-12-17T01:02:47.221Z,2.31
2017-12-17T01:03:57.260Z,2.3
2017-12-17T01:05:07.518Z,2.34
2017-12-17T01:06:17.779Z,2.31
2017-12-17T01:07:28.015Z,2.3
2017-12-17T01:08:38.294Z,2.27
2017-12-17T01:09:48.578Z,2.36
2017-12-17T01:10:58.876Z,2.31
2017-12-17T01:12:08.871Z,2.3
2017-12-17T01:13:19.147Z,2.28
2017-12-17T01:14:29.709Z,2.28
2017-12-17T01:15:39.992Z,2.36
2017-12-17T01:16:50.239Z,2.27
2017-12-17T01:18:00.509Z,2.28
2017-12-17T01:19:10.770Z,2.31
2017-12-17T01:20:21.029Z,2.28
2017-12-17T01:21:31.281Z,2.27
2017-12-17T01:22:41.530Z,2.28
2017-12-17T01:23:51.815Z,2.28
2017-12-17T01:25:02.090Z,2.31
2017-12-17T01:26:12.100Z,2.31
2017-12-17T01:27:22.386Z,2.28
2017-12-17T01:28:32.633Z,2.33
2017-12-17T01:30:14.761Z,2.33
2017-12-17T01:31:25.057Z,2.31
2017-12-17T01:32:35.314Z,2.3
2017-12-17T01:33:45.334Z,2.31
2017-12-17T01:34:55.629Z,2.36
2017-12-17T01:36:05.874Z,2.34
2017-12-17T01:37:16.157Z,2.36
2017-12-17T01:38:26.131Z,2.36
2017-12-17T01:39:36.428Z,2.27
2017-12-17T01:40:46.759Z,2.27
2017-12-17T01:41:57.065Z,2.26
2017-12-17T01:43:07.333Z,2.31
2017-12-17T01:44:17.579Z,2.3
2017-12-17T01:45:27.720Z,2.24
2017-12-17T01:46:37.850Z,2.24
2017-12-17T01:47:48.101Z,2.28
2017-12-17T01:48:58.378Z,2.28
2017-12-17T01:50:08.676Z,2.26
2017-12-17T01:51:18.932Z,2.28
2017-12-17T01:52:28.952Z,2.18
2017-12-17T01:53:39.289Z,2.18
2017-12-17T01:54:49.539Z,2.13
2017-12-17T01:55:59.859Z,2.16
2017-12-17T01:57:10.121Z,2.08
2017-12-17T01:58:20.184Z,2.12
2017-12-17T01:59:30.446Z,2.16
2017-12-17T02:00:40.736Z,2.18
2017-12-17T02:01:50.999Z,2.19
2017-12-17T02:03:01.277Z,2.16
2017-12-17T02:04:11.524Z,2.23
2017-12-17T02:05:21.895Z,2.15
2017-12-17T02:06:32.175Z,2.23
2017-12-17T02:07:42.089Z,2.19
2017-12-17T02:08:52.133Z,2.21
2017-12-17T02:10:02.456Z,2.23
2017-12-17T02:11:12.093Z,2.23
2017-12-17T02:12:22.397Z,2.19
2017-12-17T02:13:32.686Z,2.26
2017-12-17T02:14:42.748Z,2.16
2017-12-17T02:15:53.016Z,2.27
2017-12-17T02:17:03.330Z,2.28
2017-12-17T02:18:13.613Z,2.28
2017-12-17T02:19:23.873Z,2.18
2017-12-17T02:20:34.152Z,2.26
2017-12-17T02:21:44.431Z,2.24
2017-12-17T02:22:54.706Z,2.23
2017-12-17T02:24:04.966Z,2.28
2017-12-17T02:25:15.267Z,2.27
2017-12-17T02:26:25.549Z,2.21
2017-12-17T02:27:35.540Z,2.21
2017-12-17T02:28:45.857Z,2.21
2017-12-17T02:29:56.101Z,2.16
2017-12-17T02:31:06.351Z,2.06
2017-12-17T02:32:16.636Z,2.15
2017-12-17T02:33:26.912Z,2.19
2017-12-17T02:34:36.940Z,2.21
2017-12-17T02:35:47.303Z,2.23
2017-12-17T02:36:58.530Z,2.23
2017-12-17T02:38:08.520Z,2.23
2017-12-17T02:39:18.803Z,2.26
2017-12-17T02:40:29.170Z,2.21
2017-12-17T02:41:39.432Z,2.26
2017-12-17T02:42:49.680Z,2.27
2017-12-17T02:43:59.984Z,2.23
2017-12-17T02:45:10.222Z,2.26
2017-12-17T02:46:20.538Z,2.23
2017-12-17T02:47:30.826Z,2.27
2017-12-17T02:48:41.270Z,2.24
2017-12-17T02:49:51.504Z,2.21
2017-12-17T02:51:01.117Z,2.18
2017-12-17T02:52:11.049Z,2.12
2017-12-17T02:53:20.692Z,2.09
2017-12-17T02:54:30.677Z,2.06
2017-12-17T02:55:41.062Z,2.05
2017-12-17T02:56:51.316Z,2.09
2017-12-17T02:58:00.927Z,2.06
2017-12-17T02:59:10.862Z,1.97
2017-12-17T03:00:20.872Z,2.1
2017-12-17T03:01:31.178Z,2.06
2017-12-17T03:02:41.486Z,2.1
2017-12-17T03:03:51.763Z,2.03
2017-12-17T03:05:01.734Z,2.03
2017-12-17T03:06:11.992Z,2.12
2017-12-17T03:07:22.274Z,2.03
2017-12-17T03:08:32.542Z,2
2017-12-17T03:09:42.550Z,1.98
2017-12-17T03:10:52.927Z,2
2017-12-17T03:12:03.214Z,2.05
2017-12-17T03:13:13.467Z,2.01
2017-12-17T03:14:23.791Z,1.92
2017-12-17T03:15:34.024Z,2.01
2017-12-17T03:16:44.267Z,1.98
2017-12-17T03:17:54.508Z,1.92
2017-12-17T03:19:04.795Z,2.01
2017-12-17T03:20:14.832Z,1.98
2017-12-17T03:21:25.152Z,1.95
2017-12-17T03:22:35.407Z,2.01
2017-12-17T03:23:45.542Z,1.98
2017-12-17T03:24:55.772Z,1.94
2017-12-17T03:26:06.001Z,1.98
2017-12-17T03:27:16.246Z,2.05
2017-12-17T03:28:26.496Z,2.08
2017-12-17T03:29:35.986Z,1.98
2017-12-17T03:30:45.977Z,2.06
2017-12-17T03:31:56.256Z,2.08
2017-12-17T03:33:06.530Z,1.98
2017-12-17T03:34:16.856Z,2
2017-12-17T03:35:27.122Z,2.08
2017-12-17T03:36:37.435Z,2.09
2017-12-17T03:37:47.698Z,2.09
2017-12-17T03:38:57.982Z,2.06
2017-12-17T03:40:08.107Z,2.1
2017-12-17T03:41:18.360Z,2.06
2017-12-17T03:42:28.634Z,2.09
2017-12-17T03:43:38.892Z,2.01
2017-12-17T03:44:49.127Z,2.03
2017-12-17T03:45:59.030Z,2.05
2017-12-17T03:47:09.364Z,2.05
2017-12-17T03:48:19.648Z,2.03
2017-12-17T03:49:29.884Z,2.09
2017-12-17T03:50:40.166Z,2.06
2017-12-17T03:51:50.401Z,1.98
2017-12-17T03:53:00.669Z,2.05
2017-12-17T03:54:10.950Z,2.05
2017-12-17T03:55:21.444Z,2.01
2017-12-17T03:56:32.690Z,2.06
2017-12-17T03:57:42.951Z,2.03
2017-12-17T03:58:52.977Z,2.03
2017-12-17T04:00:03.310Z,2.06
2017-12-17T04:01:13.584Z,2.01
2017-12-17T04:02:23.873Z,1.95
2017-12-17T04:03:34.132Z,2.06
2017-12-17T04:04:44.400Z,1.94
2017-12-17T04:05:54.646Z,1.97
2017-12-17T04:07:04.686Z,2.01
2017-12-17T04:08:14.941Z,2.06
2017-12-17T04:09:25.190Z,2.03
2017-12-17T04:10:35.446Z,2.01
2017-12-17T04:11:45.702Z,2.01
2017-12-17T04:12:55.406Z,1.97
2017-12-17T04:14:05.313Z,2.08
2017-12-17T04:15:15.710Z,2
2017-12-17T04:16:25.787Z,1.95
2017-12-17T04:17:36.089Z,2.01
2017-12-17T04:18:46.384Z,2.05
2017-12-17T04:19:56.523Z,2.05
2017-12-17T04:21:06.873Z,1.98
2017-12-17T04:22:17.148Z,2.05
2017-12-17T04:23:27.144Z,2
2017-12-17T04:24:36.587Z,2
2017-12-17T04:25:46.607Z,1.98
2017-12-17T04:26:56.922Z,2.03
2017-12-17T04:28:06.296Z,2.03
2017-12-17T04:29:16.541Z,2.03
2017-12-17T04:30:26.815Z,2
2017-12-17T04:31:37.111Z,2
2017-12-17T04:32:47.393Z,2
2017-12-17T04:33:57.696Z,2.05
2017-12-17T04:35:07.954Z,2.01
2017-12-17T04:36:18.206Z,2.06
2017-12-17T04:37:28.184Z,2.01
2017-12-17T04:38:38.441Z,1.92
2017-12-17T04:39:48.693Z,1.95
2017-12-17T04:40:59.016Z,1.91
2017-12-17T04:42:09.268Z,2
2017-12-17T04:43:20.482Z,1.97
2017-12-17T04:44:30.720Z,1.95
2017-12-17T04:45:40.968Z,1.94
2017-12-17T04:46:51.230Z,1.84
2017-12-17T04:48:01.222Z,1.84
2017-12-17T04:49:11.577Z,1.87
2017-12-17T04:50:21.832Z,1.85
2017-12-17T04:51:31.698Z,1.88
2017-12-17T04:52:41.673Z,1.88
2017-12-17T04:53:51.673Z,1.87
2017-12-17T04:55:01.941Z,1.85
2017-12-17T04:56:11.958Z,1.92
2017-12-17T04:57:21.940Z,1.91
2017-12-17T04:58:32.013Z,1.88
2017-12-17T04:59:42.092Z,1.98
2017-12-17T05:00:52.377Z,1.95
2017-12-17T05:02:02.663Z,2.06
2017-12-17T05:03:12.484Z,1.94
2017-12-17T05:04:22.384Z,2.01
2017-12-17T05:05:32.122Z,2.06
2017-12-17T05:06:42.200Z,2.03
2017-12-17T05:07:52.234Z,2.06
2017-12-17T05:09:02.495Z,2.06
2017-12-17T05:10:12.772Z,2.06
2017-12-17T05:11:23.047Z,1.97
2017-12-17T05:12:33.291Z,1.98
2017-12-17T05:13:43.287Z,1.95
2017-12-17T05:14:53.666Z,1.94
2017-12-17T05:16:03.680Z,1.98
2017-12-17T05:17:13.655Z,2.05
2017-12-17T05:18:23.929Z,1.98
2017-12-17T05:19:34.168Z,1.98
2017-12-17T05:20:44.434Z,1.98
2017-12-17T05:21:54.672Z,2
2017-12-17T05:23:05.169Z,1.97
2017-12-17T05:24:15.435Z,2.06
2017-12-17T05:25:25.700Z,2.05
2017-12-17T05:26:35.803Z,2
2017-12-17T05:27:46.149Z,2
2017-12-17T05:28:56.391Z,2.08
2017-12-17T05:30:06.640Z,2.08
2017-12-17T05:31:16.616Z,2.06
2017-12-17T05:32:26.602Z,2.03
2017-12-17T05:33:36.839Z,2
2017-12-17T05:34:46.859Z,2.03
2017-12-17T05:35:57.357Z,1.98
2017-12-17T05:37:07.656Z,1.98
2017-12-17T05:38:17.547Z,2.01
2017-12-17T05:39:27.864Z,1.97
2017-12-17T05:40:38.114Z,1.94
2017-12-17T05:41:48.132Z,1.98
2017-12-17T05:42:58.495Z,2
2017-12-17T05:44:08.741Z,1.92
2017-12-17T05:45:18.729Z,1.97
2017-12-17T05:46:28.974Z,1.98
2017-12-17T05:47:38.933Z,2.03
2017-12-17T05:48:49.168Z,2.01
2017-12-17T05:49:59.418Z,2.05
2017-12-17T05:51:09.653Z,2.01
2017-12-17T05:52:19.638Z,1.97
2017-12-17T05:53:29.632Z,1.98
2017-12-17T05:54:39.877Z,1.98
2017-12-17T05:55:49.603Z,2.01
2017-12-17T05:56:59.858Z,1.97
2017-12-17T05:58:10.343Z,1.95
2017-12-17T05:59:20.600Z,1.88
2017-12-17T06:00:30.836Z,1.85
2017-12-17T06:01:41.132Z,1.87
2017-12-17T06:02:51.409Z,1.79
2017-12-17T06:04:01.750Z,1.82
2017-12-17T06:05:12.083Z,1.72
2017-12-17T06:06:22.393Z,1.73
2017-12-17T06:07:32.640Z,1.76
2017-12-17T06:08:42.939Z,1.79
2017-12-17T06:09:52.999Z,1.74
2017-12-17T06:11:03.376Z,1.73
2017-12-17T06:12:13.619Z,1.69
2017-12-17T06:13:23.904Z,1.69
2017-12-17T06:14:34.152Z,1.66
2017-12-17T06:15:44.420Z,1.64
2017-12-17T06:16:54.427Z,1.73
2017-12-17T06:18:04.474Z,1.76
2017-12-17T06:19:14.445Z,1.64
2017-12-17T06:20:24.707Z,1.76
2017-12-17T06:21:34.962Z,1.66
2017-12-17T06:22:45.211Z,1.76
2017-12-17T06:23:55.464Z,1.64
2017-12-17T06:25:05.824Z,1.7
2017-12-17T06:26:15.824Z,1.74
2017-12-17T06:27:26.118Z,1.72
2017-12-17T06:28:36.449Z,1.79
2017-12-17T06:29:46.763Z,1.74
2017-12-17T06:30:56.733Z,1.79
2017-12-17T06:32:07.016Z,1.77
2017-12-17T06:33:17.006Z,1.79
2017-12-17T06:34:27.331Z,1.84
2017-12-17T06:35:37.624Z,1.82
2017-12-17T06:36:47.723Z,1.87
2017-12-17T06:37:58.008Z,1.87
2017-12-17T06:39:08.290Z,1.95
2017-12-17T06:40:18.172Z,1.88
2017-12-17T06:41:28.484Z,1.87
2017-12-17T06:42:38.864Z,1.82
2017-12-17T06:43:49.114Z,1.84
2017-12-17T06:44:59.176Z,1.74
2017-12-17T06:46:09.469Z,1.69
2017-12-17T06:47:19.771Z,1.74
2017-12-17T06:48:29.882Z,1.67
2017-12-17T06:49:39.859Z,1.7
2017-12-17T06:50:50.298Z,1.58
2017-12-17T06:52:00.639Z,1.53
2017-12-17T06:53:10.934Z,1.6
2017-12-17T06:54:21.180Z,1.53
2017-12-17T06:55:31.434Z,1.42
2017-12-17T06:56:41.802Z,1.43
2017-12-17T06:57:51.810Z,1.33
2017-12-17T06:59:02.166Z,1.35
2017-12-17T07:00:12.521Z,1.32
2017-12-17T07:01:22.510Z,1.24
2017-12-17T07:02:32.737Z,1.22
2017-12-17T07:03:42.991Z,1.21
2017-12-17T07:04:53.278Z,1.25
2017-12-17T07:06:03.654Z,1.2
2017-12-17T07:07:13.933Z,1.21
2017-12-17T07:08:24.205Z,1.21
2017-12-17T07:09:34.126Z,1.12
2017-12-17T07:10:44.485Z,1.12
2017-12-17T07:11:54.781Z,1.11
2017-12-17T07:13:05.986Z,1.21
2017-12-17T07:14:16.246Z,1.12
2017-12-17T07:15:26.527Z,1.14
2017-12-17T07:16:36.815Z,1.15
2017-12-17T07:17:47.075Z,1.08
2017-12-17T07:18:57.358Z,1.11
2017-12-17T07:20:07.084Z,1.15
2017-12-17T07:21:17.371Z,1.1
2017-12-17T07:22:27.390Z,1.17
2017-12-17T07:23:37.641Z,1.22
2017-12-17T07:24:47.909Z,1.21
2017-12-17T07:25:57.914Z,1.22
2017-12-17T07:27:08.176Z,1.25
2017-12-17T07:28:18.512Z,1.21
2017-12-17T07:29:28.442Z,1.22
2017-12-17T07:30:38.742Z,1.25
2017-12-17T07:31:48.691Z,1.24
2017-12-17T07:32:58.978Z,1.25
2017-12-17T07:34:08.961Z,1.21
2017-12-17T07:35:18.708Z,1.21
2017-12-17T07:36:28.980Z,1.2
2017-12-17T07:37:39.271Z,1.25
2017-12-17T07:38:49.580Z,1.2
2017-12-17T07:39:59.838Z,1.22
2017-12-17T07:41:09.936Z,1.28
2017-12-17T07:42:20.233Z,1.3
2017-12-17T07:43:30.489Z,1.22
2017-12-17T07:44:40.737Z,1.33
2017-12-17T07:45:51.073Z,1.25
2017-12-17T07:47:01.075Z,1.22
2017-12-17T07:48:11.205Z,1.15
2017-12-17T07:49:21.198Z,1.25
2017-12-17T07:50:31.214Z,1.29
2017-12-17T07:51:41.521Z,1.22
2017-12-17T07:52:51.784Z,1.3
2017-12-17T07:54:02.067Z,1.33
2017-12-17T07:55:12.073Z,1.29
2017-12-17T07:56:22.333Z,1.38
2017-12-17T07:57:32.614Z,1.43
2017-12-17T07:58:42.428Z,1.4
2017-12-17T07:59:52.722Z,1.43
2017-12-17T08:01:02.487Z,1.39
2017-12-17T08:02:12.492Z,1.36
2017-12-17T08:03:22.757Z,1.47
2017-12-17T08:04:33.023Z,1.39
2017-12-17T08:05:43.053Z,1.54
2017-12-17T08:06:53.040Z,1.48
2017-12-17T08:08:02.736Z,1.53
2017-12-17T08:09:13.032Z,1.48
2017-12-17T08:10:23.296Z,1.5
2017-12-17T08:11:33.707Z,1.48
2017-12-17T08:12:43.969Z,1.55
2017-12-17T08:13:54.254Z,1.48
2017-12-17T08:15:04.519Z,1.4
2017-12-17T08:16:14.524Z,1.43
2017-12-17T08:17:24.857Z,1.48
2017-12-17T08:18:35.182Z,1.54
2017-12-17T08:19:45.447Z,1.53
2017-12-17T08:20:55.713Z,1.47
2017-12-17T08:22:06.212Z,1.54
2017-12-17T08:23:16.414Z,1.55
2017-12-17T08:24:26.714Z,1.48
2017-12-17T08:25:36.970Z,1.48
2017-12-17T08:26:47.240Z,1.54
2017-12-17T08:27:56.955Z,1.54
2017-12-17T08:29:06.896Z,1.53
2017-12-17T08:30:16.821Z,1.47
2017-12-17T08:31:27.116Z,1.55
2017-12-17T08:32:37.230Z,1.58
2017-12-17T08:33:47.184Z,1.53
2017-12-17T08:34:57.460Z,1.51
2017-12-17T08:36:07.860Z,1.51
2017-12-17T08:37:18.188Z,1.55
2017-12-17T08:38:28.427Z,1.58
2017-12-17T08:39:38.737Z,1.55
2017-12-17T08:40:49.014Z,1.67
2017-12-17T08:41:59.025Z,1.73
2017-12-17T08:43:08.922Z,1.72
2017-12-17T08:44:19.274Z,1.82
2017-12-17T08:45:29.615Z,1.79
2017-12-17T08:46:39.947Z,1.88
2017-12-17T08:47:50.322Z,1.94
2017-12-17T08:49:00.612Z,1.88
2017-12-17T08:50:10.632Z,1.87
2017-12-17T08:51:20.905Z,1.87
2017-12-17T08:52:31.223Z,1.9
2017-12-17T08:53:41.224Z,1.9
2017-12-17T08:54:51.242Z,1.88
2017-12-17T08:56:01.552Z,1.88
2017-12-17T08:57:11.942Z,1.85
2017-12-17T08:58:22.080Z,1.87
2017-12-17T08:59:34.610Z,1.88
2017-12-17T09:00:44.994Z,1.85
2017-12-17T09:01:55.285Z,1.84
2017-12-17T09:03:05.548Z,1.85
2017-12-17T09:04:15.819Z,1.87
2017-12-17T09:05:26.249Z,1.9
2017-12-17T09:06:37.512Z,1.84
2017-12-17T09:07:49.593Z,1.88
2017-12-17T09:08:59.872Z,1.8
2017-12-17T09:10:10.178Z,1.73
2017-12-17T09:11:20.481Z,1.73
2017-12-17T09:12:31.448Z,1.69
2017-12-17T09:13:41.571Z,1.77
2017-12-17T09:14:51.895Z,1.66
2017-12-17T09:16:01.953Z,1.67
2017-12-17T09:17:12.230Z,1.76
2017-12-17T09:18:21.979Z,1.55
2017-12-17T09:19:33.728Z,1.66
2017-12-17T09:20:44.175Z,1.62
2017-12-17T09:21:54.232Z,1.66
2017-12-17T09:23:04.226Z,1.66
2017-12-17T09:24:14.512Z,1.66
2017-12-17T09:25:24.851Z,1.74
2017-12-17T09:26:34.730Z,1.67
2017-12-17T09:27:44.802Z,1.69
2017-12-17T09:28:54.776Z,1.67
2017-12-17T09:30:04.801Z,1.72
2017-12-17T09:31:15.101Z,1.67
2017-12-17T09:32:25.375Z,1.69
2017-12-17T09:33:35.380Z,1.64
2017-12-17T09:34:45.702Z,1.57
2017-12-17T09:35:56.056Z,1.66
2017-12-17T09:37:06.398Z,1.55
2017-12-17T09:38:16.443Z,1.54
2017-12-17T09:39:26.737Z,1.5
2017-12-17T09:40:37.022Z,1.6
2017-12-17T09:41:50.264Z,1.51
2017-12-17T09:43:03.516Z,1.48
2017-12-17T09:44:13.924Z,1.6
2017-12-17T09:45:23.983Z,1.54
2017-12-17T09:46:34.311Z,1.57
2017-12-17T09:47:45.561Z,1.54
2017-12-17T09:48:55.974Z,1.6
2017-12-17T09:50:06.480Z,1.51
2017-12-17T09:51:16.779Z,1.57
2017-12-17T09:52:27.065Z,1.51
2017-12-17T09:53:37.388Z,1.53
2017-12-17T09:54:47.688Z,1.55
2017-12-17T09:55:58.069Z,1.6
2017-12-17T09:57:08.358Z,1.66
2017-12-17T09:58:18.297Z,1.62
2017-12-17T09:59:28.334Z,1.57
2017-12-17T10:00:38.093Z,1.57
2017-12-17T10:01:48.114Z,1.57
2017-12-17T10:02:58.191Z,1.62
2017-12-17T10:04:08.761Z,1.72
2017-12-17T10:05:19.054Z,1.66
2017-12-17T10:06:29.335Z,1.67
2017-12-17T10:07:39.679Z,1.74
2017-12-17T10:08:49.634Z,1.66
2017-12-17T10:09:59.962Z,1.72
2017-12-17T10:11:10.285Z,1.66
2017-12-17T10:12:20.637Z,1.66
2017-12-17T10:13:30.923Z,1.6
2017-12-17T10:14:40.605Z,1.57
2017-12-17T10:15:50.632Z,1.55
2017-12-17T10:17:00.880Z,1.69
2017-12-17T10:18:10.905Z,1.72
2017-12-17T10:19:21.185Z,1.74
2017-12-17T10:20:31.134Z,1.76
2017-12-17T10:21:41.470Z,1.79
2017-12-17T10:22:51.896Z,1.72
2017-12-17T10:24:02.144Z,1.76
2017-12-17T10:25:44.328Z,1.7
2017-12-17T10:26:54.650Z,1.7
2017-12-17T10:28:04.699Z,1.7
2017-12-17T10:29:15.022Z,1.64
2017-12-17T10:30:25.077Z,1.55
2017-12-17T10:31:35.360Z,1.5
2017-12-17T10:32:45.697Z,1.55
2017-12-17T10:33:56.026Z,1.54
2017-12-17T10:35:06.037Z,1.53
2017-12-17T10:36:16.329Z,1.54
2017-12-17T10:37:26.644Z,1.5
2017-12-17T10:38:36.910Z,1.53
2017-12-17T10:39:47.242Z,1.51
2017-12-17T10:40:57.551Z,1.6
2017-12-17T10:42:07.460Z,1.5
2017-12-17T10:43:17.533Z,1.55
2017-12-17T10:44:27.966Z,1.6
2017-12-17T10:45:38.232Z,1.73
2017-12-17T10:46:48.549Z,1.72
2017-12-17T10:47:58.830Z,1.69
2017-12-17T10:49:09.197Z,1.74
2017-12-17T10:50:19.556Z,1.7
2017-12-17T10:51:29.553Z,1.58
2017-12-17T10:52:39.934Z,1.67
2017-12-17T10:53:49.937Z,1.62
2017-12-17T10:55:00.249Z,1.64
2017-12-17T10:56:10.555Z,1.6
2017-12-17T10:57:20.628Z,1.7
2017-12-17T10:58:31.039Z,1.76
2017-12-17T10:59:41.760Z,1.72
2017-12-17T11:00:51.766Z,1.84
2017-12-17T11:02:03.104Z,1.84
2017-12-17T11:03:13.118Z,1.82
2017-12-17T11:04:23.399Z,1.94
2017-12-17T11:05:33.684Z,1.87
2017-12-17T11:06:43.992Z,1.97
2017-12-17T11:07:54.363Z,2
2017-12-17T11:09:04.565Z,2
2017-12-17T11:10:14.846Z,2.03
2017-12-17T11:11:25.181Z,2.06
2017-12-17T11:12:35.517Z,2.08
2017-12-17T11:13:45.823Z,2.13
2017-12-17T11:14:55.838Z,2.27
2017-12-17T11:16:06.226Z,2.37
2017-12-17T11:17:16.226Z,2.42
2017-12-17T11:18:26.210Z,2.44
2017-12-17T11:19:37.471Z,2.56
2017-12-17T11:20:47.758Z,2.52
2017-12-17T11:21:58.034Z,2.7
2017-12-17T11:23:08.376Z,2.66
2017-12-17T11:24:18.396Z,2.74
2017-12-17T11:25:28.385Z,2.74
2017-12-17T11:26:38.674Z,2.82
2017-12-17T11:27:49.678Z,2.91
2017-12-17T11:28:59.580Z,2.94
2017-12-17T11:30:09.913Z,3
2017-12-17T11:31:19.940Z,2.96
2017-12-17T11:32:29.595Z,2.94
2017-12-17T11:33:39.656Z,2.89
2017-12-17T11:34:49.959Z,2.91
2017-12-17T11:36:00.071Z,2.85
2017-12-17T11:37:11.365Z,2.84
2017-12-17T11:38:21.693Z,2.85
2017-12-17T11:39:32.014Z,2.77
2017-12-17T11:40:42.038Z,2.79
2017-12-17T11:41:52.348Z,2.74
2017-12-17T11:43:02.635Z,2.87
2017-12-17T11:44:12.553Z,2.84
2017-12-17T11:45:22.902Z,2.87
2017-12-17T11:46:33.193Z,2.85
2017-12-17T11:47:43.519Z,2.92
2017-12-17T11:48:53.820Z,2.87
2017-12-17T11:50:03.856Z,2.82
2017-12-17T11:51:14.224Z,3
2017-12-17T11:52:24.657Z,2.88
2017-12-17T11:53:34.944Z,2.89
2017-12-17T11:54:45.342Z,2.97
2017-12-17T11:55:55.353Z,2.96
2017-12-17T11:57:05.383Z,3.07
2017-12-17T11:58:15.692Z,3.1
2017-12-17T11:59:25.742Z,3.19
2017-12-17T12:00:36.019Z,3.16
2017-12-17T12:01:46.527Z,3.31
2017-12-17T12:02:56.844Z,3.28
2017-12-17T12:04:07.167Z,3.21
2017-12-17T12:05:17.730Z,3.31
2017-12-17T12:06:27.786Z,3.25
2017-12-17T12:07:38.760Z,3.29
2017-12-17T12:08:48.802Z,3.24
2017-12-17T12:09:59.112Z,3.15
2017-12-17T12:11:09.417Z,3.08
2017-12-17T12:12:19.749Z,3.02
2017-12-17T12:13:30.146Z,3.06
2017-12-17T12:14:40.472Z,3.08
2017-12-17T12:15:50.756Z,3
2017-12-17T12:17:01.067Z,2.88
2017-12-17T12:18:11.076Z,2.92
2017-12-17T12:19:21.372Z,2.88
2017-12-17T12:20:31.486Z,2.88
2017-12-17T12:21:41.502Z,2.84
2017-12-17T12:22:51.830Z,2.77
2017-12-17T12:24:01.854Z,2.74
2017-12-17T12:25:11.878Z,2.71
2017-12-17T12:26:21.572Z,2.71
2017-12-17T12:27:32.859Z,2.7
2017-12-17T12:28:43.148Z,2.56
2017-12-17T12:29:53.502Z,2.64
2017-12-17T12:31:03.779Z,2.56
2017-12-17T12:32:13.852Z,2.55
2017-12-17T12:33:23.948Z,2.53
2017-12-17T12:34:34.255Z,2.66
2017-12-17T12:35:44.560Z,2.48
2017-12-17T12:36:54.868Z,2.52
2017-12-17T12:38:05.219Z,2.44
2017-12-17T12:39:15.590Z,2.44
2017-12-17T12:40:25.913Z,2.46
2017-12-17T12:41:36.058Z,2.39
2017-12-17T12:42:46.194Z,2.34
2017-12-17T12:43:56.463Z,2.36
2017-12-17T12:45:06.522Z,2.24
2017-12-17T12:46:16.866Z,2.21
2017-12-17T12:47:27.172Z,2.18
2017-12-17T12:48:37.439Z,2.13
2017-12-17T12:49:47.711Z,2.1
2017-12-17T12:50:57.996Z,2.12
2017-12-17T12:52:08.318Z,2.1
2017-12-17T12:53:18.704Z,2.1
2017-12-17T12:54:29.034Z,2.1
2017-12-17T12:55:39.073Z,2.09
2017-12-17T12:56:49.002Z,1.98
2017-12-17T12:57:59.066Z,2.03
2017-12-17T12:59:08.816Z,2.03
2017-12-17T13:00:19.153Z,2.03
2017-12-17T13:01:29.440Z,2.15
2017-12-17T13:02:39.733Z,2.12
2017-12-17T13:03:50.057Z,2.16
2017-12-17T13:05:00.067Z,2.18
2017-12-17T13:06:10.331Z,2.24
2017-12-17T13:07:20.086Z,2.16
2017-12-17T13:08:30.347Z,2.18
2017-12-17T13:09:40.386Z,2.26
2017-12-17T13:10:50.688Z,2.3
2017-12-17T13:12:00.985Z,2.27
2017-12-17T13:13:11.289Z,2.27
2017-12-17T13:14:21.305Z,2.19
2017-12-17T13:15:31.580Z,2.23
2017-12-17T13:16:41.910Z,2.06
2017-12-17T13:17:52.236Z,2.13
2017-12-17T13:19:02.546Z,2.12
2017-12-17T13:20:13.532Z,2.12
2017-12-17T13:21:23.508Z,2.09
2017-12-17T13:22:33.806Z,2.08
2017-12-17T13:23:44.085Z,2.09
2017-12-17T13:24:54.413Z,2.06
2017-12-17T13:26:05.047Z,2.13
2017-12-17T13:27:15.534Z,2.1
2017-12-17T13:28:25.539Z,2.1
2017-12-17T13:29:35.844Z,2.09
2017-12-17T13:30:46.165Z,2.03
2017-12-17T13:31:56.295Z,2.01
2017-12-17T13:33:06.595Z,2.06
2017-12-17T13:34:16.886Z,2.03
2017-12-17T13:35:27.175Z,2
2017-12-17T13:36:37.273Z,2.01
2017-12-17T13:37:47.227Z,2.05
2017-12-17T13:38:57.183Z,2.1
2017-12-17T13:40:07.213Z,2.09
2017-12-17T13:41:17.495Z,2.08
2017-12-17T13:42:27.768Z,2.08
2017-12-17T13:43:38.089Z,2.08
2017-12-17T13:44:48.410Z,1.98
2017-12-17T13:45:58.449Z,2.08
2017-12-17T13:47:08.922Z,2.03
2017-12-17T13:48:19.238Z,2.01
2017-12-17T13:49:29.549Z,2.01
2017-12-17T13:50:39.367Z,2.06
2017-12-17T13:51:49.382Z,2
2017-12-17T13:52:59.667Z,2.06
2017-12-17T13:54:09.970Z,2.05
2017-12-17T13:55:21.218Z,2.08
2017-12-17T13:56:31.490Z,2.01
2017-12-17T13:57:41.927Z,1.95
2017-12-17T13:58:52.212Z,2.03
2017-12-17T14:00:02.315Z,1.97
2017-12-17T14:01:12.842Z,1.98
2017-12-17T14:02:23.313Z,1.94
2017-12-17T14:03:33.364Z,1.97
2017-12-17T14:04:43.661Z,2.01
2017-12-17T14:05:53.578Z,2.06
2017-12-17T14:07:03.870Z,2.01
2017-12-17T14:08:14.190Z,1.97
2017-12-17T14:09:23.992Z,1.98
2017-12-17T14:10:34.374Z,2
2017-12-17T14:11:44.714Z,2.06
2017-12-17T14:12:55.038Z,2.09
2017-12-17T14:14:06.295Z,1.98
2017-12-17T14:15:16.415Z,2.03
2017-12-17T14:16:26.724Z,2
2017-12-17T14:17:37.109Z,2.01
2017-12-17T14:18:47.079Z,2.08
2017-12-17T14:19:57.439Z,2.03
2017-12-17T14:21:07.809Z,2.01
2017-12-17T14:22:18.218Z,2.05
2017-12-17T14:23:28.624Z,2.08
2017-12-17T14:24:39.040Z,2.06
2017-12-17T14:25:50.062Z,2
2017-12-17T14:27:01.448Z,1.98
2017-12-17T14:28:11.798Z,2.05
2017-12-17T14:29:22.362Z,1.92
2017-12-17T14:30:32.417Z,1.97
2017-12-17T14:31:42.725Z,2.01
2017-12-17T14:32:53.096Z,2.01
2017-12-17T14:34:03.418Z,2.09
2017-12-17T14:35:13.818Z,1.97
2017-12-17T14:36:24.169Z,1.94
2017-12-17T14:37:34.444Z,1.94
2017-12-17T14:38:44.496Z,1.91
2017-12-17T14:39:54.569Z,1.97
2017-12-17T14:41:04.959Z,1.95
2017-12-17T14:42:14.987Z,1.92
2017-12-17T14:43:25.322Z,1.87
2017-12-17T14:44:35.614Z,1.85
2017-12-17T14:45:45.991Z,1.92
2017-12-17T14:46:56.303Z,1.87
2017-12-17T14:48:06.611Z,1.85
2017-12-17T14:49:17.002Z,1.92
2017-12-17T14:50:27.346Z,1.97
2017-12-17T14:51:37.697Z,1.94
2017-12-17T14:52:47.962Z,1.97
2017-12-17T14:53:58.270Z,1.8
2017-12-17T14:55:08.760Z,1.85
2017-12-17T14:56:18.694Z,1.88
2017-12-17T14:57:29.068Z,1.88
2017-12-17T14:58:39.328Z,1.9
2017-12-17T14:59:49.615Z,1.82
2017-12-17T15:00:59.631Z,1.76
2017-12-17T15:02:09.994Z,1.84
2017-12-17T15:03:20.308Z,1.9
2017-12-17T15:04:30.332Z,1.84
2017-12-17T15:05:40.763Z,1.87
2017-12-17T15:06:50.802Z,1.85
2017-12-17T15:08:00.839Z,1.84
2017-12-17T15:09:11.201Z,1.77
2017-12-17T15:10:21.231Z,1.76
2017-12-17T15:11:31.268Z,1.8
2017-12-17T15:12:41.393Z,1.82
2017-12-17T15:13:51.680Z,1.9
2017-12-17T15:15:01.969Z,1.88
2017-12-17T15:16:12.264Z,1.87
2017-12-17T15:17:22.322Z,1.8
2017-12-17T15:18:32.671Z,1.84
2017-12-17T15:19:43.037Z,1.84
2017-12-17T15:20:53.489Z,1.7
2017-12-17T15:22:03.906Z,1.69
2017-12-17T15:23:15.375Z,1.7
2017-12-17T15:24:25.665Z,1.74
2017-12-17T15:25:36.010Z,1.69
2017-12-17T15:26:46.292Z,1.7
2017-12-17T15:27:56.797Z,1.76
2017-12-17T15:29:07.096Z,1.72
2017-12-17T15:30:17.224Z,1.82
2017-12-17T15:31:27.549Z,1.82
2017-12-17T15:32:37.731Z,1.84
2017-12-17T15:33:48.135Z,1.72
2017-12-17T15:34:58.565Z,1.77
2017-12-17T15:36:08.594Z,1.76
2017-12-17T15:37:18.994Z,1.76
2017-12-17T15:38:29.342Z,1.7
2017-12-17T15:39:39.410Z,1.74
2017-12-17T15:40:49.493Z,1.77
2017-12-17T15:41:59.903Z,1.79